createdAt,value
2018-05-23T00:00:56.921Z,3.17
2018-05-23T00:03:27.192Z,3.40
2018-05-23T00:05:56.809Z,3.90
2018-05-23T00:08:26.248Z,3.37
2018-05-23T00:10:55.493Z,3.50
2018-05-23T00:13:25.052Z,3.70
2018-05-23T00:15:54.492Z,3.07
2018-05-23T00:18:23.949Z,3.20
2018-05-23T00:20:53.876Z,3.33
2018-05-23T00:23:23.408Z,3.93
2018-05-23T00:25:53.160Z,3.87
2018-05-23T00:28:23.201Z,3.53
2018-05-23T00:30:53.582Z,3.77
2018-05-23T00:33:24.501Z,3.57
2018-05-23T00:35:54.200Z,3.50
2018-05-23T00:38:23.705Z,3.53
2018-05-23T00:40:52.957Z,3.70
2018-05-23T00:43:22.436Z,3.80
2018-05-23T00:45:51.949Z,4.33
2018-05-23T00:48:22.185Z,3.90
2018-05-23T00:50:51.762Z,4.07
2018-05-23T00:53:21.377Z,3.50
2018-05-23T00:55:52.028Z,3.53
2018-05-23T00:58:22.768Z,3.70
2018-05-23T01:00:52.887Z,3.40
2018-05-23T01:03:22.929Z,3.70
2018-05-23T01:05:53.321Z,3.10
2018-05-23T01:08:22.567Z,3.17
2018-05-23T01:10:52.237Z,3.93
2018-05-23T01:13:21.844Z,3.37
2018-05-23T01:15:51.126Z,3.70
2018-05-23T01:18:20.762Z,3.33
2018-05-23T01:20:50.986Z,3.23
2018-05-23T01:23:20.527Z,3.30
2018-05-23T01:25:49.804Z,3.23
2018-05-23T01:28:20.401Z,3.27
2018-05-23T01:30:51.294Z,3.37
2018-05-23T01:33:20.884Z,3.03
2018-05-23T01:35:51.644Z,3.57
2018-05-23T01:38:21.174Z,3.10
2018-05-23T01:40:50.852Z,3.07
2018-05-23T01:43:20.375Z,2.73
2018-05-23T01:45:49.964Z,3.10
2018-05-23T01:48:20.393Z,3.50
2018-05-23T01:50:49.665Z,3.00
2018-05-23T01:53:19.169Z,3.50
2018-05-23T01:55:48.752Z,2.70
2018-05-23T01:58:18.354Z,3.07
2018-05-23T02:00:47.969Z,3.07
2018-05-23T02:03:17.417Z,3.57
2018-05-23T02:05:47.154Z,3.50
2018-05-23T02:08:17.616Z,3.27
2018-05-23T02:10:48.149Z,2.60
2018-05-23T02:13:17.772Z,3.03
2018-05-23T02:15:47.348Z,3.30
2018-05-23T02:18:17.060Z,2.93
2018-05-23T02:20:46.581Z,3.00
2018-05-23T02:23:18.536Z,3.47
2018-05-23T02:25:49.588Z,3.00
2018-05-23T02:28:19.068Z,3.23
2018-05-23T02:30:49.056Z,3.13
2018-05-23T02:33:18.720Z,3.43
2018-05-23T02:35:48.572Z,3.27
2018-05-23T02:38:18.888Z,2.90
2018-05-23T02:40:48.628Z,2.80
2018-05-23T02:43:18.251Z,2.90
2018-05-23T02:45:47.823Z,3.07
2018-05-23T02:48:17.444Z,3.37
2018-05-23T02:50:47.156Z,3.30
2018-05-23T02:53:16.670Z,3.07
2018-05-23T02:55:46.862Z,2.80
2018-05-23T02:58:16.404Z,2.77
2018-05-23T03:00:49.461Z,2.73
2018-05-23T03:03:18.737Z,3.20
2018-05-23T03:05:48.300Z,3.00
2018-05-23T03:08:17.524Z,3.10
2018-05-23T03:10:47.089Z,3.00
2018-05-23T03:13:16.804Z,3.10
2018-05-23T03:15:46.463Z,3.67
2018-05-23T03:18:16.334Z,3.37
2018-05-23T03:20:45.874Z,2.90
2018-05-23T03:23:16.328Z,2.70
2018-05-23T03:25:45.888Z,3.17
2018-05-23T03:28:16.016Z,2.80
2018-05-23T03:30:46.360Z,2.83
2018-05-23T03:33:16.377Z,2.77
2018-05-23T03:35:45.900Z,3.00
2018-05-23T03:38:15.500Z,2.90
2018-05-23T03:40:44.716Z,3.10
2018-05-23T03:43:14.848Z,2.63
2018-05-23T03:45:44.924Z,2.73
2018-05-23T03:48:14.461Z,2.70
2018-05-23T03:50:44.067Z,2.40
2018-05-23T03:53:13.552Z,2.40
2018-05-23T03:55:43.164Z,2.20
2018-05-23T03:58:13.277Z,2.13
2018-05-23T04:00:48.529Z,2.90
2018-05-23T04:03:23.993Z,2.87
2018-05-23T04:06:11.289Z,2.40
2018-05-23T04:08:40.796Z,2.43
2018-05-23T04:11:10.371Z,2.40
2018-05-23T04:13:39.770Z,2.10
2018-05-23T04:16:09.297Z,2.57
2018-05-23T04:18:38.788Z,2.87
2018-05-23T04:21:08.913Z,2.70
2018-05-23T04:23:39.102Z,2.30
2018-05-23T04:26:08.588Z,2.30
2018-05-23T04:28:38.192Z,2.80
2018-05-23T04:31:07.940Z,2.77
2018-05-23T04:33:37.152Z,2.57
2018-05-23T04:36:06.800Z,2.40
2018-05-23T04:38:36.420Z,1.77
2018-05-23T04:41:05.948Z,2.07
2018-05-23T04:43:35.456Z,2.40
2018-05-23T04:46:04.964Z,2.80
2018-05-23T04:48:34.448Z,2.70
2018-05-23T04:51:04.117Z,2.97
2018-05-23T04:53:33.619Z,2.70
2018-05-23T04:56:03.544Z,2.63
2018-05-23T04:58:33.129Z,3.17
2018-05-23T05:01:02.644Z,2.47
2018-05-23T05:03:33.088Z,2.70
2018-05-23T05:06:03.189Z,2.67
2018-05-23T05:08:32.670Z,3.33
2018-05-23T05:11:02.034Z,3.37
2018-05-23T05:13:31.753Z,3.10
2018-05-23T05:16:02.261Z,3.47
2018-05-23T05:18:31.467Z,3.63
2018-05-23T05:21:01.028Z,3.53
2018-05-23T05:23:30.576Z,3.90
2018-05-23T05:25:59.916Z,3.23
2018-05-23T05:28:29.996Z,2.90
2018-05-23T05:30:59.541Z,4.07
2018-05-23T05:33:30.868Z,3.60
2018-05-23T05:36:01.005Z,3.93
2018-05-23T05:38:30.497Z,3.60
2018-05-23T05:41:00.337Z,4.17
2018-05-23T05:43:31.089Z,3.80
2018-05-23T05:46:00.588Z,4.00
2018-05-23T05:48:31.297Z,3.73
2018-05-23T05:51:01.436Z,3.70
2018-05-23T05:53:31.057Z,3.63
2018-05-23T05:56:01.997Z,3.97
2018-05-23T05:58:31.952Z,3.93
2018-05-23T06:01:01.600Z,4.20
2018-05-23T06:03:30.804Z,4.30
2018-05-23T06:06:00.780Z,3.90
2018-05-23T06:08:30.762Z,3.87
2018-05-23T06:11:00.249Z,4.00
2018-05-23T06:13:30.018Z,4.23
2018-05-23T06:15:59.599Z,4.50
2018-05-23T06:18:29.107Z,4.40
2018-05-23T06:20:59.740Z,4.93
2018-05-23T06:23:29.431Z,4.10
2018-05-23T06:25:58.632Z,5.17
2018-05-23T06:28:28.167Z,5.20
2018-05-23T06:30:58.391Z,4.17
2018-05-23T06:33:27.882Z,4.30
2018-05-23T06:35:57.135Z,4.40
2018-05-23T06:38:26.721Z,4.00
2018-05-23T06:40:56.431Z,4.53
2018-05-23T06:43:26.037Z,4.70
2018-05-23T06:45:57.008Z,4.60
2018-05-23T06:48:26.567Z,4.77
2018-05-23T06:50:56.153Z,4.77
2018-05-23T06:53:26.688Z,4.40
2018-05-23T06:55:56.145Z,4.03
2018-05-23T06:58:25.764Z,4.47
2018-05-23T07:00:55.348Z,4.67
2018-05-23T07:03:24.877Z,4.37
2018-05-23T07:05:54.403Z,5.20
2018-05-23T07:08:23.555Z,3.80
2018-05-23T07:10:53.074Z,4.47
2018-05-23T07:13:22.604Z,4.33
2018-05-23T07:15:52.808Z,4.70
2018-05-23T07:18:22.400Z,4.33
2018-05-23T07:20:52.449Z,4.57
2018-05-23T07:23:21.700Z,5.33
2018-05-23T07:25:52.042Z,4.30
2018-05-23T07:28:21.502Z,4.50
2018-05-23T07:30:51.651Z,4.70
2018-05-23T07:33:21.174Z,4.00
2018-05-23T07:35:50.381Z,4.13
2018-05-23T07:38:19.993Z,4.47
2018-05-23T07:40:50.172Z,4.97
2018-05-23T07:43:19.685Z,5.77
2018-05-23T07:45:49.225Z,4.43
2018-05-23T07:48:18.560Z,4.13
2018-05-23T07:50:48.106Z,4.50
2018-05-23T07:53:18.658Z,4.30
2018-05-23T07:55:48.252Z,4.93
2018-05-23T07:58:17.862Z,4.70
2018-05-23T08:00:48.394Z,4.40
2018-05-23T08:03:17.932Z,4.27
2018-05-23T08:05:47.220Z,4.37
2018-05-23T08:08:16.698Z,3.90
2018-05-23T08:10:46.227Z,4.00
2018-05-23T08:13:16.428Z,4.23
2018-05-23T08:15:47.215Z,4.07
2018-05-23T08:18:16.913Z,4.07
2018-05-23T08:20:46.803Z,4.40
2018-05-23T08:23:16.561Z,4.90
2018-05-23T08:25:46.253Z,3.83
2018-05-23T08:28:15.757Z,4.27
2018-05-23T08:30:45.888Z,4.70
2018-05-23T08:33:15.092Z,4.13
2018-05-23T08:35:44.694Z,3.90
2018-05-23T08:38:15.022Z,3.97
2018-05-23T08:40:44.326Z,3.90
2018-05-23T08:43:13.833Z,4.03
2018-05-23T08:45:44.061Z,4.43
2018-05-23T08:48:13.584Z,3.90
2018-05-23T08:50:42.836Z,4.30
2018-05-23T08:53:12.296Z,4.00
2018-05-23T08:55:41.828Z,4.03
2018-05-23T08:58:11.401Z,4.03
2018-05-23T09:00:40.891Z,4.10
2018-05-23T09:03:10.398Z,4.70
2018-05-23T09:05:40.016Z,4.43
2018-05-23T09:08:09.540Z,4.30
2018-05-23T09:10:39.028Z,4.37
2018-05-23T09:13:09.012Z,4.30
2018-05-23T09:15:38.500Z,4.67
2018-05-23T09:18:08.168Z,4.03
2018-05-23T09:20:37.728Z,3.70
2018-05-23T09:23:07.387Z,3.70
2018-05-23T09:25:37.632Z,4.90
2018-05-23T09:28:07.228Z,4.33
2018-05-23T09:30:36.844Z,4.10
2018-05-23T09:33:06.287Z,4.37
2018-05-23T09:35:35.500Z,4.20
2018-05-23T09:38:05.060Z,4.57
2018-05-23T09:40:35.352Z,4.47
2018-05-23T09:43:04.564Z,3.83
2018-05-23T09:45:34.097Z,3.90
2018-05-23T09:48:03.616Z,4.70
2018-05-23T09:50:33.652Z,3.63
2018-05-23T09:53:02.944Z,4.50
2018-05-23T09:55:32.440Z,4.40
2018-05-23T09:58:01.953Z,3.87
2018-05-23T10:00:31.485Z,3.50
2018-05-23T10:03:00.724Z,3.87
2018-05-23T10:05:30.705Z,4.03
2018-05-23T10:08:00.296Z,4.23
2018-05-23T10:10:29.960Z,4.03
2018-05-23T10:12:59.443Z,4.07
2018-05-23T10:15:29.812Z,4.10
2018-05-23T10:17:59.352Z,3.70
2018-05-23T10:20:28.556Z,3.80
2018-05-23T10:22:57.796Z,3.90
2018-05-23T10:25:27.552Z,3.47
2018-05-23T10:27:57.188Z,3.43
2018-05-23T10:30:26.802Z,3.30
2018-05-23T10:32:56.108Z,3.30
2018-05-23T10:35:25.547Z,3.20
2018-05-23T10:37:55.116Z,3.07
2018-05-23T10:40:24.757Z,3.13
2018-05-23T10:42:54.269Z,3.20
2018-05-23T10:45:23.874Z,3.10
2018-05-23T10:47:53.177Z,2.80
2018-05-23T10:50:22.634Z,2.95
2018-05-23T10:52:52.097Z,2.85
2018-05-23T10:55:21.299Z,2.75
2018-05-23T10:57:50.788Z,2.87
2018-05-23T11:00:19.992Z,2.70
2018-05-23T11:02:49.743Z,3.20
2018-05-23T11:05:18.932Z,2.65
2018-05-23T11:07:48.144Z,3.33
2018-05-23T11:10:17.818Z,2.70
2018-05-23T11:12:47.811Z,3.25
2018-05-23T11:15:17.438Z,3.05
2018-05-23T11:17:47.020Z,2.75
2018-05-23T11:20:16.709Z,2.58
2018-05-23T11:22:46.285Z,2.60
2018-05-23T11:25:16.100Z,2.85
2018-05-23T11:27:45.304Z,2.37
2018-05-23T11:30:14.820Z,2.83
2018-05-23T11:32:44.792Z,2.60
2018-05-23T11:35:14.365Z,2.58
2018-05-23T11:37:44.262Z,2.85
2018-05-23T11:40:13.790Z,2.40
2018-05-23T11:42:43.709Z,2.75
2018-05-23T11:45:12.920Z,2.22
2018-05-23T11:47:42.420Z,2.10
2018-05-23T11:50:11.625Z,2.30
2018-05-23T11:52:40.861Z,3.17
2018-05-23T11:55:10.357Z,2.53
2018-05-23T11:57:39.920Z,2.47
2018-05-23T12:00:09.455Z,3.00
2018-05-23T12:02:38.940Z,1.95
2018-05-23T12:05:08.450Z,2.62
2018-05-23T12:07:37.964Z,2.75
2018-05-23T12:10:07.490Z,2.42
2018-05-23T12:12:36.976Z,2.45
2018-05-23T12:15:06.615Z,2.53
2018-05-23T12:17:35.835Z,2.42
2018-05-23T12:20:05.396Z,2.53
2018-05-23T12:22:35.013Z,2.17
2018-05-23T12:25:04.524Z,2.35
2018-05-23T12:27:33.999Z,2.20
2018-05-23T12:30:03.436Z,2.42
2018-05-23T12:32:32.973Z,2.20
2018-05-23T12:35:02.211Z,2.45
2018-05-23T12:37:31.761Z,2.22
2018-05-23T12:40:01.296Z,2.30
2018-05-23T12:42:30.803Z,2.25
2018-05-23T12:45:00.387Z,2.00
2018-05-23T12:47:29.896Z,2.20
2018-05-23T12:49:59.533Z,2.10
2018-05-23T12:52:29.120Z,2.12
2018-05-23T12:54:58.654Z,2.40
2018-05-23T12:57:28.165Z,2.40
2018-05-23T12:59:57.632Z,2.42
2018-05-23T13:02:27.066Z,2.10
2018-05-23T13:04:56.568Z,2.45
2018-05-23T13:07:26.199Z,2.10
2018-05-23T13:09:55.683Z,2.33
2018-05-23T13:12:25.249Z,1.92
2018-05-23T13:14:54.709Z,2.40
2018-05-23T13:17:23.941Z,2.12
2018-05-23T13:19:54.376Z,2.00
2018-05-23T13:22:23.595Z,1.80
2018-05-23T13:24:52.944Z,1.73
2018-05-23T13:27:22.416Z,2.22
2018-05-23T13:29:51.768Z,2.00
2018-05-23T13:32:22.089Z,1.80
2018-05-23T13:34:52.156Z,1.95
2018-05-23T13:37:21.386Z,1.95
2018-05-23T13:39:50.920Z,1.52
2018-05-23T13:42:20.431Z,2.45
2018-05-23T13:44:49.947Z,3.37
2018-05-23T13:47:19.376Z,1.95
2018-05-23T13:49:48.912Z,1.80
2018-05-23T13:52:18.471Z,2.05
2018-05-23T13:54:48.128Z,1.80
2018-05-23T13:57:17.704Z,2.00
2018-05-23T13:59:47.218Z,1.85
2018-05-23T14:02:16.708Z,2.25
2018-05-23T14:04:45.941Z,1.92
2018-05-23T14:07:15.520Z,1.60
2018-05-23T14:09:45.113Z,1.70
2018-05-23T14:12:14.665Z,2.15
2018-05-23T14:14:44.894Z,2.00
2018-05-23T14:17:14.579Z,2.42
2018-05-23T14:19:43.966Z,1.90
2018-05-23T14:22:13.518Z,1.87
2018-05-23T14:24:43.044Z,1.95
2018-05-23T14:27:12.537Z,1.75
2018-05-23T14:29:41.842Z,1.92
2018-05-23T14:32:11.060Z,1.67
2018-05-23T14:34:41.168Z,1.77
2018-05-23T14:37:10.697Z,1.80
2018-05-23T14:39:40.164Z,1.67
2018-05-23T14:42:09.738Z,1.75
2018-05-23T14:44:39.309Z,1.80
2018-05-23T14:47:08.793Z,1.45
2018-05-23T14:49:38.145Z,1.80
2018-05-23T14:52:07.911Z,1.77
2018-05-23T14:54:37.394Z,1.58
2018-05-23T14:57:06.839Z,2.10
2018-05-23T14:59:36.361Z,2.00
2018-05-23T15:02:07.134Z,1.83
2018-05-23T15:51:54.092Z,2.00
2018-05-23T15:54:23.296Z,2.40
2018-05-23T15:56:52.835Z,2.00
2018-05-23T15:59:22.843Z,2.30
2018-05-23T16:01:52.055Z,1.92
2018-05-23T16:04:21.349Z,2.00
2018-05-23T16:06:51.036Z,1.80
2018-05-23T16:09:20.539Z,2.10
2018-05-23T16:11:50.077Z,2.10
2018-05-23T16:14:20.406Z,2.10
2018-05-23T16:16:49.757Z,2.50
2018-05-23T16:19:19.326Z,1.85
2018-05-23T16:21:48.828Z,2.17
2018-05-23T16:24:18.337Z,2.28
2018-05-23T16:26:47.540Z,1.90
2018-05-23T16:29:17.051Z,2.10
2018-05-23T16:31:46.564Z,1.85
2018-05-23T16:34:16.160Z,1.85
2018-05-23T16:36:45.757Z,2.03
2018-05-23T16:39:16.008Z,1.98
2018-05-23T16:41:46.437Z,2.00
2018-05-23T16:44:16.180Z,1.77
2018-05-23T16:46:45.683Z,1.83
2018-05-23T16:49:14.880Z,1.70
2018-05-23T16:51:44.449Z,2.12
2018-05-23T16:54:13.652Z,1.85
2018-05-23T16:56:43.300Z,1.77
2018-05-23T16:59:12.538Z,1.90
2018-05-23T17:01:42.037Z,2.10
2018-05-23T17:04:11.303Z,2.60
2018-05-23T17:06:40.892Z,1.45
2018-05-23T17:09:10.129Z,1.95
2018-05-23T17:11:39.373Z,1.70
2018-05-23T17:14:08.876Z,1.55
2018-05-23T17:16:38.437Z,1.62
2018-05-23T17:19:08.034Z,1.80
2018-05-23T17:21:38.277Z,2.17
2018-05-23T17:24:07.484Z,1.52
2018-05-23T17:26:37.169Z,1.55
2018-05-23T17:29:07.237Z,1.60
2018-05-23T17:31:36.904Z,1.90
2018-05-23T17:34:06.416Z,1.60
2018-05-23T17:36:35.884Z,1.50
2018-05-23T17:39:05.325Z,1.25
2018-05-23T17:41:34.656Z,1.60
2018-05-23T17:44:03.907Z,1.42
2018-05-23T17:46:33.366Z,1.60
2018-05-23T17:49:02.650Z,1.45
2018-05-23T17:51:32.158Z,1.50
2018-05-23T17:54:02.304Z,1.87
2018-05-23T17:56:38.296Z,1.42
2018-05-23T17:59:08.484Z,1.63
2018-05-23T18:01:40.174Z,1.60
2018-05-23T18:04:09.664Z,1.60
2018-05-23T18:06:39.341Z,1.70
2018-05-23T18:09:08.784Z,1.70
2018-05-23T18:11:39.588Z,1.60
2018-05-23T18:14:09.204Z,1.97
2018-05-23T18:16:38.735Z,1.80
2018-05-23T18:19:08.240Z,1.47
2018-05-23T18:21:37.749Z,1.63
2018-05-23T18:24:07.241Z,1.77
2018-05-23T18:26:36.461Z,1.53
2018-05-23T18:29:06.903Z,1.40
2018-05-23T18:31:36.116Z,1.40
2018-05-23T18:34:05.613Z,1.37
2018-05-23T18:36:34.856Z,1.30
2018-05-23T18:39:05.010Z,1.50
2018-05-23T18:41:34.516Z,1.40
2018-05-23T18:44:04.036Z,1.17
2018-05-23T18:46:33.418Z,1.30
2018-05-23T18:49:02.966Z,1.40
2018-05-23T18:51:32.452Z,1.33
2018-05-23T18:54:02.170Z,1.20
2018-05-23T18:56:31.497Z,1.40
2018-05-23T18:59:00.976Z,1.20
2018-05-23T19:01:30.500Z,1.40
2018-05-23T19:04:00.065Z,1.10
2018-05-23T19:06:29.277Z,1.10
2018-05-23T19:08:58.920Z,1.03
2018-05-23T19:11:28.425Z,1.20
2018-05-23T19:13:57.653Z,0.93
2018-05-23T19:16:27.827Z,1.13
2018-05-23T19:18:57.380Z,1.20
2018-05-23T19:21:27.535Z,1.00
2018-05-23T19:23:57.030Z,0.97
2018-05-23T19:26:26.623Z,1.10
2018-05-23T19:28:56.219Z,1.20
2018-05-23T19:31:25.424Z,1.00
2018-05-23T19:33:54.928Z,0.80
2018-05-23T19:36:24.716Z,0.70
2018-05-23T19:38:54.276Z,0.80
2018-05-23T19:41:23.768Z,0.70
2018-05-23T19:43:53.245Z,0.83
2018-05-23T19:46:23.297Z,0.90
2018-05-23T19:48:52.716Z,1.00
2018-05-23T19:51:22.746Z,1.10
2018-05-23T19:53:52.247Z,1.30
2018-05-23T19:56:22.502Z,0.90
2018-05-23T19:58:51.706Z,0.80
2018-05-23T20:01:21.264Z,0.80
2018-05-23T20:03:50.794Z,0.87
2018-05-23T20:06:20.304Z,0.73
2018-05-23T20:08:50.295Z,0.87
2018-05-23T20:11:19.815Z,0.70
2018-05-23T20:13:49.324Z,0.83
2018-05-23T20:16:18.647Z,0.90
2018-05-23T20:18:48.157Z,0.93
2018-05-23T20:21:17.640Z,0.87
2018-05-23T20:23:47.175Z,0.80
2018-05-23T20:26:16.496Z,0.77
2018-05-23T20:28:45.966Z,0.80
2018-05-23T20:31:15.497Z,0.60
2018-05-23T20:33:45.007Z,0.77
2018-05-23T20:36:14.240Z,1.10
2018-05-23T20:38:43.798Z,0.90
2018-05-23T20:41:13.342Z,0.90
2018-05-23T20:43:42.641Z,0.80
2018-05-23T20:46:12.476Z,0.60
2018-05-23T20:48:43.163Z,0.60
2018-05-23T20:51:14.389Z,0.50
2018-05-23T20:53:44.972Z,0.60
2018-05-23T20:56:14.583Z,0.70
2018-05-23T20:58:44.368Z,0.60
2018-05-23T21:01:13.984Z,0.70
2018-05-23T21:03:43.214Z,0.73
2018-05-23T21:06:12.638Z,0.70
2018-05-23T21:08:42.731Z,0.60
2018-05-23T21:11:12.143Z,0.70
2018-05-23T21:13:41.587Z,0.70
2018-05-23T21:16:10.950Z,0.50
2018-05-23T21:18:40.154Z,0.60
2018-05-23T21:21:09.735Z,0.80
2018-05-23T21:23:38.994Z,0.70
2018-05-23T21:26:08.475Z,0.70
2018-05-23T21:28:40.725Z,0.60
2018-05-23T21:31:10.252Z,0.50
2018-05-23T21:33:39.893Z,0.70
2018-05-23T21:36:09.378Z,0.80
2018-05-23T21:38:38.867Z,0.50
2018-05-23T21:41:08.453Z,0.70
2018-05-23T21:43:38.077Z,0.60
2018-05-23T21:46:07.434Z,0.63
2018-05-23T21:48:37.542Z,1.10
2018-05-23T21:51:07.150Z,0.87
2018-05-23T21:53:36.557Z,0.60
2018-05-23T21:56:06.503Z,0.73
2018-05-23T21:58:36.523Z,0.63
2018-05-23T22:01:06.073Z,0.63
2018-05-23T22:03:35.615Z,0.60
2018-05-23T22:06:05.082Z,0.73
2018-05-23T22:08:34.601Z,0.70
2018-05-23T22:11:04.041Z,0.70
2018-05-23T22:13:33.659Z,0.60
2018-05-23T22:16:03.328Z,0.60
2018-05-23T22:18:32.804Z,0.83
2018-05-23T22:21:02.361Z,0.50
2018-05-23T22:23:32.325Z,0.73
2018-05-23T22:26:01.897Z,0.63
2018-05-23T22:28:32.241Z,0.50
2018-05-23T22:31:01.648Z,0.73
2018-05-23T22:33:31.228Z,0.60
2018-05-23T22:36:00.552Z,0.90
2018-05-23T22:38:29.970Z,0.60
2018-05-23T22:41:00.362Z,0.60
2018-05-23T22:43:29.693Z,0.60
2018-05-23T22:45:59.184Z,0.50
2018-05-23T22:48:32.103Z,0.60
2018-05-23T22:51:01.678Z,0.90
2018-05-23T22:53:32.140Z,0.60
2018-05-23T22:56:01.625Z,0.50
2018-05-23T22:58:32.054Z,0.73
2018-05-23T23:01:02.414Z,0.80
2018-05-23T23:03:31.821Z,0.67
2018-05-23T23:06:02.125Z,0.60
2018-05-23T23:08:33.007Z,0.80
2018-05-23T23:11:02.565Z,0.80
2018-05-23T23:13:32.625Z,0.80
2018-05-23T23:16:02.198Z,0.70
2018-05-23T23:18:31.736Z,0.90
2018-05-23T23:21:01.227Z,0.80
2018-05-23T23:23:30.818Z,1.00
2018-05-23T23:26:00.025Z,1.00
2018-05-23T23:28:30.001Z,1.07
2018-05-23T23:31:00.827Z,1.00
2018-05-23T23:33:30.300Z,0.90
2018-05-23T23:35:59.537Z,0.90
2018-05-23T23:38:28.950Z,0.90
2018-05-23T23:41:00.285Z,1.33
2018-05-23T23:43:29.761Z,1.00
2018-05-23T23:45:59.493Z,1.00
2018-05-23T23:48:29.119Z,1.00
2018-05-23T23:50:58.740Z,1.20
2018-05-23T23:53:28.311Z,1.17
2018-05-23T23:55:57.873Z,1.10
2018-05-23T23:58:27.364Z,1.13
